LFBC 212330Z AUTO 16003KT 9999 FEW034 BKN200 BKN230 M01/M02 Q1022
LFBD 212330Z AUTO 16004KT 9999 BKN032 BKN240 02/M01 Q1022 NOSIG